sensor_id;sensor_type;location;lat;lon;timestamp;temperature;humidity
20654;DHT22;21083;50.898;4.902;2023-02-28T00:01:45;2.70;99.90
20654;DHT22;21083;50.898;4.902;2023-02-28T00:04:13;2.70;99.90
20654;DHT22;21083;50.898;4.902;2023-02-28T00:06:40;2.70;99.90
20654;DHT22;21083;50.898;4.902;2023-02-28T00:09:07;2.70;99.90
20654;DHT22;21083;50.898;4.902;2023-02-28T00:11:34;2.60;99.90
20654;DHT22;21083;50.898;4.902;2023-02-28T00:14:03;2.60;99.90
20654;DHT22;21083;50.898;4.902;2023-02-28T00:16:30;2.60;99.90
20654;DHT22;21083;50.898;4.902;2023-02-28T00:18:57;2.60;99.90
20654;DHT22;21083;50.898;4.902;2023-02-28T00:21:25;2.50;99.90
20654;DHT22;21083;50.898;4.902;2023-02-28T00:23:52;2.50;99.90
20654;DHT22;21083;50.898;4.902;2023-02-28T00:26:19;2.40;99.90
20654;DHT22;21083;50.898;4.902;2023-02-28T00:28:46;2.40;99.90
20654;DHT22;21083;50.898;4.902;2023-02-28T00:31:13;2.40;99.90
20654;DHT22;21083;50.898;4.902;2023-02-28T00:33:40;2.40;99.90
20654;DHT22;21083;50.898;4.902;2023-02-28T00:36:09;2.40;99.90
20654;DHT22;21083;50.898;4.902;2023-02-28T00:38:38;2.40;99.90
20654;DHT22;21083;50.898;4.902;2023-02-28T00:41:06;2.30;99.90
20654;DHT22;21083;50.898;4.902;2023-02-28T00:43:35;2.30;99.90
20654;DHT22;21083;50.898;4.902;2023-02-28T00:46:03;2.30;99.90
20654;DHT22;21083;50.898;4.902;2023-02-28T00:48:31;2.20;99.90
20654;DHT22;21083;50.898;4.902;2023-02-28T00:50:58;2.20;99.90
20654;DHT22;21083;50.898;4.902;2023-02-28T00:53:25;2.20;99.90
20654;DHT22;21083;50.898;4.902;2023-02-28T00:55:53;2.10;99.90
20654;DHT22;21083;50.898;4.902;2023-02-28T00:58:20;2.00;99.90
20654;DHT22;21083;50.898;4.902;2023-02-28T01:00:47;2.00;99.90
20654;DHT22;21083;50.898;4.902;2023-02-28T01:03:15;2.00;99.90
20654;DHT22;21083;50.898;4.902;2023-02-28T01:05:42;2.00;99.90
20654;DHT22;21083;50.898;4.902;2023-02-28T01:08:09;2.00;99.90
20654;DHT22;21083;50.898;4.902;2023-02-28T01:10:36;2.00;99.90
20654;DHT22;21083;50.898;4.902;2023-02-28T01:13:05;2.00;99.90
20654;DHT22;21083;50.898;4.902;2023-02-28T01:15:32;1.90;99.90
20654;DHT22;21083;50.898;4.902;2023-02-28T01:17:59;1.90;99.90
20654;DHT22;21083;50.898;4.902;2023-02-28T01:20:26;2.00;99.90
20654;DHT22;21083;50.898;4.902;2023-02-28T01:22:53;1.90;99.90
20654;DHT22;21083;50.898;4.902;2023-02-28T01:25:20;1.90;99.90
20654;DHT22;21083;50.898;4.902;2023-02-28T01:27:47;1.90;99.90
20654;DHT22;21083;50.898;4.902;2023-02-28T01:30:15;1.80;99.90
20654;DHT22;21083;50.898;4.902;2023-02-28T01:32:42;1.80;99.90
20654;DHT22;21083;50.898;4.902;2023-02-28T01:35:09;1.80;99.90
20654;DHT22;21083;50.898;4.902;2023-02-28T01:37:36;1.70;99.90
20654;DHT22;21083;50.898;4.902;2023-02-28T01:40:04;1.60;99.90
20654;DHT22;21083;50.898;4.902;2023-02-28T01:42:31;1.60;99.90
20654;DHT22;21083;50.898;4.902;2023-02-28T01:45:01;1.60;99.90
20654;DHT22;21083;50.898;4.902;2023-02-28T01:47:32;1.60;99.90
20654;DHT22;21083;50.898;4.902;2023-02-28T01:50:04;1.60;99.90
20654;DHT22;21083;50.898;4.902;2023-02-28T01:52:32;1.60;99.90
20654;DHT22;21083;50.898;4.902;2023-02-28T01:55:01;1.60;99.90
20654;DHT22;21083;50.898;4.902;2023-02-28T01:57:32;1.50;99.90
20654;DHT22;21083;50.898;4.902;2023-02-28T02:00:05;1.50;99.90
20654;DHT22;21083;50.898;4.902;2023-02-28T02:02:36;1.40;99.90
20654;DHT22;21083;50.898;4.902;2023-02-28T02:05:06;1.40;99.90
20654;DHT22;21083;50.898;4.902;2023-02-28T02:07:36;1.50;99.90
20654;DHT22;21083;50.898;4.902;2023-02-28T02:10:10;1.40;99.90
20654;DHT22;21083;50.898;4.902;2023-02-28T02:13:05;1.40;99.90
20654;DHT22;21083;50.898;4.902;2023-02-28T02:15:38;1.40;99.90
20654;DHT22;21083;50.898;4.902;2023-02-28T02:18:14;1.30;99.90
20654;DHT22;21083;50.898;4.902;2023-02-28T02:24:11;1.30;99.90
20654;DHT22;21083;50.898;4.902;2023-02-28T02:26:58;1.30;99.90
20654;DHT22;21083;50.898;4.902;2023-02-28T02:29:56;1.30;99.90
20654;DHT22;21083;50.898;4.902;2023-02-28T02:33:06;1.30;99.90
20654;DHT22;21083;50.898;4.902;2023-02-28T02:35:40;1.30;99.90
20654;DHT22;21083;50.898;4.902;2023-02-28T02:38:13;1.20;99.90
20654;DHT22;21083;50.898;4.902;2023-02-28T02:40:55;1.20;99.90
20654;DHT22;21083;50.898;4.902;2023-02-28T02:43:28;1.10;99.90
20654;DHT22;21083;50.898;4.902;2023-02-28T02:45:59;1.20;99.90
20654;DHT22;21083;50.898;4.902;2023-02-28T02:48:31;1.10;99.90
20654;DHT22;21083;50.898;4.902;2023-02-28T02:51:03;1.10;99.90
20654;DHT22;21083;50.898;4.902;2023-02-28T02:53:34;1.10;99.90
20654;DHT22;21083;50.898;4.902;2023-02-28T02:56:06;1.10;99.90
20654;DHT22;21083;50.898;4.902;2023-02-28T02:58:37;1.10;99.90
20654;DHT22;21083;50.898;4.902;2023-02-28T03:01:08;1.00;99.90
20654;DHT22;21083;50.898;4.902;2023-02-28T03:03:37;1.00;99.90
20654;DHT22;21083;50.898;4.902;2023-02-28T03:06:05;1.00;99.90
20654;DHT22;21083;50.898;4.902;2023-02-28T03:08:35;0.90;99.90
20654;DHT22;21083;50.898;4.902;2023-02-28T03:11:04;0.90;99.90
20654;DHT22;21083;50.898;4.902;2023-02-28T03:13:46;0.90;99.90
20654;DHT22;21083;50.898;4.902;2023-02-28T03:16:26;0.90;99.90
20654;DHT22;21083;50.898;4.902;2023-02-28T03:19:03;0.90;99.90
20654;DHT22;21083;50.898;4.902;2023-02-28T03:21:35;0.80;99.90
20654;DHT22;21083;50.898;4.902;2023-02-28T03:24:08;0.80;99.90
20654;DHT22;21083;50.898;4.902;2023-02-28T03:26:41;0.70;99.90
20654;DHT22;21083;50.898;4.902;2023-02-28T03:29:15;0.80;99.90
20654;DHT22;21083;50.898;4.902;2023-02-28T03:31:47;0.70;99.90
20654;DHT22;21083;50.898;4.902;2023-02-28T03:34:19;0.70;99.90
20654;DHT22;21083;50.898;4.902;2023-02-28T03:36:52;0.70;99.90
20654;DHT22;21083;50.898;4.902;2023-02-28T03:39:22;0.60;99.90
20654;DHT22;21083;50.898;4.902;2023-02-28T03:41:52;0.60;99.90
20654;DHT22;21083;50.898;4.902;2023-02-28T03:44:24;0.60;99.90
20654;DHT22;21083;50.898;4.902;2023-02-28T03:46:54;0.50;99.90
20654;DHT22;21083;50.898;4.902;2023-02-28T03:49:27;0.60;99.90
20654;DHT22;21083;50.898;4.902;2023-02-28T03:51:58;0.50;99.90
20654;DHT22;21083;50.898;4.902;2023-02-28T03:54:30;0.50;99.90
20654;DHT22;21083;50.898;4.902;2023-02-28T03:57:02;0.50;99.90
20654;DHT22;21083;50.898;4.902;2023-02-28T03:59:34;0.50;99.90
20654;DHT22;21083;50.898;4.902;2023-02-28T04:02:03;0.50;99.90
20654;DHT22;21083;50.898;4.902;2023-02-28T04:04:30;0.50;99.90
20654;DHT22;21083;50.898;4.902;2023-02-28T04:07:03;0.50;99.90
20654;DHT22;21083;50.898;4.902;2023-02-28T04:09:31;0.60;99.90
20654;DHT22;21083;50.898;4.902;2023-02-28T04:11:58;0.60;99.90
20654;DHT22;21083;50.898;4.902;2023-02-28T04:14:25;0.60;99.90
20654;DHT22;21083;50.898;4.902;2023-02-28T04:16:52;0.60;99.90
20654;DHT22;21083;50.898;4.902;2023-02-28T04:19:19;0.60;99.90
20654;DHT22;21083;50.898;4.902;2023-02-28T04:21:48;0.60;99.90
20654;DHT22;21083;50.898;4.902;2023-02-28T04:24:17;0.60;99.90
20654;DHT22;21083;50.898;4.902;2023-02-28T04:26:46;0.60;99.90
20654;DHT22;21083;50.898;4.902;2023-02-28T04:29:18;0.70;99.90
20654;DHT22;21083;50.898;4.902;2023-02-28T04:31:45;0.70;99.90
20654;DHT22;21083;50.898;4.902;2023-02-28T04:34:13;0.70;99.90
20654;DHT22;21083;50.898;4.902;2023-02-28T04:36:40;0.70;99.90
20654;DHT22;21083;50.898;4.902;2023-02-28T04:39:07;0.60;99.90
20654;DHT22;21083;50.898;4.902;2023-02-28T04:41:36;0.60;99.90
20654;DHT22;21083;50.898;4.902;2023-02-28T04:44:03;0.60;99.90
20654;DHT22;21083;50.898;4.902;2023-02-28T04:46:30;0.60;99.90
20654;DHT22;21083;50.898;4.902;2023-02-28T04:48:57;0.60;99.90
20654;DHT22;21083;50.898;4.902;2023-02-28T04:51:24;0.60;99.90
20654;DHT22;21083;50.898;4.902;2023-02-28T04:53:52;0.60;99.90
20654;DHT22;21083;50.898;4.902;2023-02-28T04:56:19;0.60;99.90
20654;DHT22;21083;50.898;4.902;2023-02-28T04:58:48;0.60;99.90
20654;DHT22;21083;50.898;4.902;2023-02-28T05:01:21;0.70;99.90
20654;DHT22;21083;50.898;4.902;2023-02-28T05:03:49;0.70;99.90
20654;DHT22;21083;50.898;4.902;2023-02-28T05:06:17;0.60;99.90
20654;DHT22;21083;50.898;4.902;2023-02-28T05:08:44;0.60;99.90
20654;DHT22;21083;50.898;4.902;2023-02-28T05:11:17;0.60;99.90
20654;DHT22;21083;50.898;4.902;2023-02-28T05:13:45;0.60;99.90
20654;DHT22;21083;50.898;4.902;2023-02-28T05:16:14;0.60;99.90
20654;DHT22;21083;50.898;4.902;2023-02-28T05:18:42;0.60;99.90
20654;DHT22;21083;50.898;4.902;2023-02-28T05:21:25;0.50;99.90
20654;DHT22;21083;50.898;4.902;2023-02-28T05:23:52;0.50;99.90
20654;DHT22;21083;50.898;4.902;2023-02-28T05:26:20;0.50;99.90
20654;DHT22;21083;50.898;4.902;2023-02-28T05:28:47;0.40;99.90
20654;DHT22;21083;50.898;4.902;2023-02-28T05:31:15;0.40;99.90
20654;DHT22;21083;50.898;4.902;2023-02-28T05:33:43;0.40;99.90
20654;DHT22;21083;50.898;4.902;2023-02-28T05:36:10;0.40;99.90
20654;DHT22;21083;50.898;4.902;2023-02-28T05:38:37;0.40;99.90
20654;DHT22;21083;50.898;4.902;2023-02-28T05:41:07;0.40;99.90
20654;DHT22;21083;50.898;4.902;2023-02-28T05:43:35;0.30;99.90
20654;DHT22;21083;50.898;4.902;2023-02-28T05:46:04;0.30;99.90
20654;DHT22;21083;50.898;4.902;2023-02-28T05:48:33;0.20;99.90
20654;DHT22;21083;50.898;4.902;2023-02-28T05:51:00;0.20;99.90
20654;DHT22;21083;50.898;4.902;2023-02-28T05:53:28;0.20;99.90
20654;DHT22;21083;50.898;4.902;2023-02-28T05:55:55;0.20;99.90
20654;DHT22;21083;50.898;4.902;2023-02-28T05:58:22;0.20;99.90
20654;DHT22;21083;50.898;4.902;2023-02-28T06:00:51;0.20;99.90
20654;DHT22;21083;50.898;4.902;2023-02-28T06:03:17;0.10;99.90
20654;DHT22;21083;50.898;4.902;2023-02-28T06:05:46;0.10;99.90
20654;DHT22;21083;50.898;4.902;2023-02-28T06:08:13;0.10;99.90
20654;DHT22;21083;50.898;4.902;2023-02-28T06:10:39;0.20;99.90
20654;DHT22;21083;50.898;4.902;2023-02-28T06:13:06;0.10;99.90
20654;DHT22;21083;50.898;4.902;2023-02-28T06:15:33;0.20;99.90
20654;DHT22;21083;50.898;4.902;2023-02-28T06:18:00;0.10;99.90
20654;DHT22;21083;50.898;4.902;2023-02-28T06:20:27;0.20;99.90
20654;DHT22;21083;50.898;4.902;2023-02-28T06:22:57;0.10;99.90
20654;DHT22;21083;50.898;4.902;2023-02-28T06:25:25;0.10;99.90
20654;DHT22;21083;50.898;4.902;2023-02-28T06:27:52;0.10;99.90
20654;DHT22;21083;50.898;4.902;2023-02-28T06:30:19;0.10;99.90
20654;DHT22;21083;50.898;4.902;2023-02-28T06:32:52;0.10;99.90
20654;DHT22;21083;50.898;4.902;2023-02-28T06:35:19;0.00;99.90
20654;DHT22;21083;50.898;4.902;2023-02-28T06:37:46;0.00;99.90
20654;DHT22;21083;50.898;4.902;2023-02-28T06:40:15;0.00;99.90
20654;DHT22;21083;50.898;4.902;2023-02-28T06:42:42;0.00;99.90
20654;DHT22;21083;50.898;4.902;2023-02-28T06:45:09;0.00;99.90
20654;DHT22;21083;50.898;4.902;2023-02-28T06:47:37;0.00;99.90
20654;DHT22;21083;50.898;4.902;2023-02-28T06:50:06;0.00;99.90
20654;DHT22;21083;50.898;4.902;2023-02-28T06:52:33;0.00;99.90
20654;DHT22;21083;50.898;4.902;2023-02-28T06:55:02;0.10;99.90
20654;DHT22;21083;50.898;4.902;2023-02-28T06:57:31;0.10;99.90
20654;DHT22;21083;50.898;4.902;2023-02-28T06:59:59;0.00;99.90
20654;DHT22;21083;50.898;4.902;2023-02-28T07:02:26;0.10;99.90
20654;DHT22;21083;50.898;4.902;2023-02-28T07:04:53;0.00;99.90
20654;DHT22;21083;50.898;4.902;2023-02-28T07:07:20;0.00;99.90
20654;DHT22;21083;50.898;4.902;2023-02-28T07:09:46;0.10;99.90
20654;DHT22;21083;50.898;4.902;2023-02-28T07:12:13;0.10;99.90
20654;DHT22;21083;50.898;4.902;2023-02-28T07:14:41;0.10;99.90
20654;DHT22;21083;50.898;4.902;2023-02-28T07:17:09;0.20;99.90
20654;DHT22;21083;50.898;4.902;2023-02-28T07:19:37;0.20;99.90
20654;DHT22;21083;50.898;4.902;2023-02-28T07:22:04;0.30;99.90
20654;DHT22;21083;50.898;4.902;2023-02-28T07:24:31;0.30;99.90
20654;DHT22;21083;50.898;4.902;2023-02-28T07:26:59;0.40;99.90
20654;DHT22;21083;50.898;4.902;2023-02-28T07:29:26;0.40;99.90
20654;DHT22;21083;50.898;4.902;2023-02-28T07:31:54;0.40;99.90
20654;DHT22;21083;50.898;4.902;2023-02-28T07:34:22;0.40;99.90
20654;DHT22;21083;50.898;4.902;2023-02-28T07:36:52;0.50;99.90
20654;DHT22;21083;50.898;4.902;2023-02-28T07:39:19;0.70;99.90
20654;DHT22;21083;50.898;4.902;2023-02-28T07:41:46;0.60;99.90
20654;DHT22;21083;50.898;4.902;2023-02-28T07:44:13;0.80;99.90
20654;DHT22;21083;50.898;4.902;2023-02-28T07:46:40;0.80;99.90
20654;DHT22;21083;50.898;4.902;2023-02-28T07:49:09;0.90;99.90
20654;DHT22;21083;50.898;4.902;2023-02-28T07:51:35;0.90;99.90
20654;DHT22;21083;50.898;4.902;2023-02-28T07:54:03;0.90;99.90
20654;DHT22;21083;50.898;4.902;2023-02-28T07:56:30;1.00;99.90
20654;DHT22;21083;50.898;4.902;2023-02-28T07:58:56;1.10;99.90
20654;DHT22;21083;50.898;4.902;2023-02-28T08:01:23;1.10;99.90
20654;DHT22;21083;50.898;4.902;2023-02-28T08:03:50;1.20;99.90
20654;DHT22;21083;50.898;4.902;2023-02-28T08:06:21;1.40;99.90
20654;DHT22;21083;50.898;4.902;2023-02-28T08:08:48;1.40;99.90
20654;DHT22;21083;50.898;4.902;2023-02-28T08:11:15;1.50;99.90
20654;DHT22;21083;50.898;4.902;2023-02-28T08:13:43;1.60;99.90
20654;DHT22;21083;50.898;4.902;2023-02-28T08:16:10;1.70;99.90
20654;DHT22;21083;50.898;4.902;2023-02-28T08:18:37;1.70;99.90
20654;DHT22;21083;50.898;4.902;2023-02-28T08:21:07;1.80;99.90
20654;DHT22;21083;50.898;4.902;2023-02-28T08:23:36;1.90;99.90
20654;DHT22;21083;50.898;4.902;2023-02-28T08:26:03;1.90;99.90
20654;DHT22;21083;50.898;4.902;2023-02-28T08:28:30;1.80;99.90
20654;DHT22;21083;50.898;4.902;2023-02-28T08:30:58;1.90;99.90
20654;DHT22;21083;50.898;4.902;2023-02-28T08:33:25;2.00;99.90
20654;DHT22;21083;50.898;4.902;2023-02-28T08:35:54;2.10;99.90
20654;DHT22;21083;50.898;4.902;2023-02-28T08:38:21;2.20;99.90
20654;DHT22;21083;50.898;4.902;2023-02-28T08:40:49;2.30;99.90
20654;DHT22;21083;50.898;4.902;2023-02-28T08:43:16;2.40;99.90
20654;DHT22;21083;50.898;4.902;2023-02-28T08:45:43;2.50;99.90
20654;DHT22;21083;50.898;4.902;2023-02-28T08:48:10;2.60;99.90
20654;DHT22;21083;50.898;4.902;2023-02-28T08:50:36;2.70;99.90
20654;DHT22;21083;50.898;4.902;2023-02-28T08:53:03;2.80;99.90
20654;DHT22;21083;50.898;4.902;2023-02-28T08:55:30;2.80;99.90
20654;DHT22;21083;50.898;4.902;2023-02-28T08:57:58;3.00;99.90
20654;DHT22;21083;50.898;4.902;2023-02-28T09:00:26;3.00;99.90
20654;DHT22;21083;50.898;4.902;2023-02-28T09:02:53;3.10;99.90
20654;DHT22;21083;50.898;4.902;2023-02-28T09:05:20;3.10;99.90
20654;DHT22;21083;50.898;4.902;2023-02-28T09:07:47;3.20;99.90
20654;DHT22;21083;50.898;4.902;2023-02-28T09:10:14;3.40;99.90
20654;DHT22;21083;50.898;4.902;2023-02-28T09:12:41;3.50;99.90
20654;DHT22;21083;50.898;4.902;2023-02-28T09:15:10;3.60;99.90
20654;DHT22;21083;50.898;4.902;2023-02-28T09:17:37;3.70;99.90
20654;DHT22;21083;50.898;4.902;2023-02-28T09:20:05;3.70;99.90
20654;DHT22;21083;50.898;4.902;2023-02-28T09:22:32;3.80;99.90
20654;DHT22;21083;50.898;4.902;2023-02-28T09:24:59;4.00;99.90
20654;DHT22;21083;50.898;4.902;2023-02-28T09:27:26;4.00;99.90
20654;DHT22;21083;50.898;4.902;2023-02-28T09:29:53;4.10;99.90
20654;DHT22;21083;50.898;4.902;2023-02-28T09:32:21;4.20;99.90
20654;DHT22;21083;50.898;4.902;2023-02-28T09:34:48;4.40;99.90
20654;DHT22;21083;50.898;4.902;2023-02-28T09:37:15;4.50;99.90
20654;DHT22;21083;50.898;4.902;2023-02-28T09:39:42;4.70;99.90
20654;DHT22;21083;50.898;4.902;2023-02-28T09:42:18;4.70;99.90
20654;DHT22;21083;50.898;4.902;2023-02-28T09:44:47;4.70;99.90
20654;DHT22;21083;50.898;4.902;2023-02-28T09:47:21;4.80;99.90
20654;DHT22;21083;50.898;4.902;2023-02-28T09:49:53;4.90;99.90
20654;DHT22;21083;50.898;4.902;2023-02-28T09:52:27;5.00;99.90
20654;DHT22;21083;50.898;4.902;2023-02-28T09:54:55;5.10;99.90
20654;DHT22;21083;50.898;4.902;2023-02-28T09:57:31;5.40;99.90
20654;DHT22;21083;50.898;4.902;2023-02-28T10:00:07;5.50;99.90
20654;DHT22;21083;50.898;4.902;2023-02-28T10:03:06;5.60;99.90
20654;DHT22;21083;50.898;4.902;2023-02-28T10:05:41;5.80;99.90
20654;DHT22;21083;50.898;4.902;2023-02-28T10:08:13;5.90;99.90
20654;DHT22;21083;50.898;4.902;2023-02-28T10:10:44;6.10;99.90
20654;DHT22;21083;50.898;4.902;2023-02-28T10:13:23;6.20;99.90
20654;DHT22;21083;50.898;4.902;2023-02-28T10:15:56;6.30;99.90
20654;DHT22;21083;50.898;4.902;2023-02-28T10:18:29;6.30;99.90
20654;DHT22;21083;50.898;4.902;2023-02-28T10:20:57;6.50;99.90
20654;DHT22;21083;50.898;4.902;2023-02-28T10:23:30;6.60;99.90
20654;DHT22;21083;50.898;4.902;2023-02-28T10:26:00;6.90;99.90
20654;DHT22;21083;50.898;4.902;2023-02-28T10:28:29;7.20;99.90
20654;DHT22;21083;50.898;4.902;2023-02-28T10:30:58;7.20;99.90
20654;DHT22;21083;50.898;4.902;2023-02-28T10:33:29;7.60;99.90
20654;DHT22;21083;50.898;4.902;2023-02-28T10:35:57;7.70;99.90
20654;DHT22;21083;50.898;4.902;2023-02-28T10:38:26;7.70;99.90
20654;DHT22;21083;50.898;4.902;2023-02-28T10:41:05;7.80;99.90
20654;DHT22;21083;50.898;4.902;2023-02-28T10:43:38;8.10;99.90
20654;DHT22;21083;50.898;4.902;2023-02-28T10:46:15;8.30;99.90
20654;DHT22;21083;50.898;4.902;2023-02-28T10:49:01;8.50;99.90
20654;DHT22;21083;50.898;4.902;2023-02-28T10:51:35;8.70;99.90
20654;DHT22;21083;50.898;4.902;2023-02-28T10:54:03;8.90;99.90
20654;DHT22;21083;50.898;4.902;2023-02-28T10:56:31;8.80;99.90
20654;DHT22;21083;50.898;4.902;2023-02-28T10:58:59;8.80;99.90
20654;DHT22;21083;50.898;4.902;2023-02-28T11:01:36;8.90;99.90
20654;DHT22;21083;50.898;4.902;2023-02-28T11:04:17;9.10;99.90
20654;DHT22;21083;50.898;4.902;2023-02-28T11:06:44;9.10;99.90
20654;DHT22;21083;50.898;4.902;2023-02-28T11:09:19;9.20;99.90
20654;DHT22;21083;50.898;4.902;2023-02-28T11:11:48;9.20;99.90
20654;DHT22;21083;50.898;4.902;2023-02-28T11:14:20;9.40;99.90
20654;DHT22;21083;50.898;4.902;2023-02-28T11:16:48;9.60;99.90
20654;DHT22;21083;50.898;4.902;2023-02-28T11:19:22;9.70;99.90
20654;DHT22;21083;50.898;4.902;2023-02-28T11:21:56;9.80;99.90
20654;DHT22;21083;50.898;4.902;2023-02-28T11:24:26;10.00;99.90
20654;DHT22;21083;50.898;4.902;2023-02-28T11:26:54;10.10;99.90
20654;DHT22;21083;50.898;4.902;2023-02-28T11:29:23;10.20;99.90
20654;DHT22;21083;50.898;4.902;2023-02-28T11:32:16;10.10;99.90
20654;DHT22;21083;50.898;4.902;2023-02-28T11:34:45;10.20;99.90
20654;DHT22;21083;50.898;4.902;2023-02-28T11:37:15;10.30;99.90
20654;DHT22;21083;50.898;4.902;2023-02-28T11:39:44;10.10;99.90
20654;DHT22;21083;50.898;4.902;2023-02-28T11:42:31;10.20;99.90
20654;DHT22;21083;50.898;4.902;2023-02-28T11:45:18;10.40;99.90
20654;DHT22;21083;50.898;4.902;2023-02-28T11:47:53;10.50;99.90
20654;DHT22;21083;50.898;4.902;2023-02-28T11:50:33;10.80;99.90
20654;DHT22;21083;50.898;4.902;2023-02-28T11:53:12;11.10;99.90
20654;DHT22;21083;50.898;4.902;2023-02-28T11:55:43;11.20;99.90
20654;DHT22;21083;50.898;4.902;2023-02-28T11:58:33;11.40;99.90
20654;DHT22;21083;50.898;4.902;2023-02-28T12:01:35;11.50;99.90
20654;DHT22;21083;50.898;4.902;2023-02-28T12:04:16;11.70;99.90
20654;DHT22;21083;50.898;4.902;2023-02-28T12:06:48;11.80;99.90
20654;DHT22;21083;50.898;4.902;2023-02-28T12:09:29;11.60;99.90
20654;DHT22;21083;50.898;4.902;2023-02-28T12:12:01;12.00;99.90
20654;DHT22;21083;50.898;4.902;2023-02-28T12:14:53;12.30;99.90
20654;DHT22;21083;50.898;4.902;2023-02-28T12:17:33;12.40;99.90
20654;DHT22;21083;50.898;4.902;2023-02-28T12:20:08;12.30;99.90
20654;DHT22;21083;50.898;4.902;2023-02-28T12:22:47;12.40;99.90
20654;DHT22;21083;50.898;4.902;2023-02-28T12:25:39;12.50;99.90
20654;DHT22;21083;50.898;4.902;2023-02-28T12:28:12;12.70;99.90
20654;DHT22;21083;50.898;4.902;2023-02-28T12:30:49;12.70;99.90
20654;DHT22;21083;50.898;4.902;2023-02-28T12:33:19;12.50;99.90
20654;DHT22;21083;50.898;4.902;2023-02-28T12:35:49;12.70;99.90
20654;DHT22;21083;50.898;4.902;2023-02-28T12:38:21;12.90;99.90
20654;DHT22;21083;50.898;4.902;2023-02-28T12:40:52;13.00;99.90
20654;DHT22;21083;50.898;4.902;2023-02-28T12:43:22;13.00;99.90
20654;DHT22;21083;50.898;4.902;2023-02-28T12:45:55;12.90;99.90
20654;DHT22;21083;50.898;4.902;2023-02-28T12:48:27;13.00;99.90
20654;DHT22;21083;50.898;4.902;2023-02-28T12:50:56;13.20;99.90
20654;DHT22;21083;50.898;4.902;2023-02-28T12:53:27;13.40;99.60
20654;DHT22;21083;50.898;4.902;2023-02-28T12:56:03;13.50;99.20
20654;DHT22;21083;50.898;4.902;2023-02-28T12:58:38;13.70;99.90
20654;DHT22;21083;50.898;4.902;2023-02-28T13:07:37;13.80;99.10
20654;DHT22;21083;50.898;4.902;2023-02-28T13:10:09;13.90;99.30
20654;DHT22;21083;50.898;4.902;2023-02-28T13:12:47;14.00;97.90
20654;DHT22;21083;50.898;4.902;2023-02-28T13:15:18;14.10;97.60
20654;DHT22;21083;50.898;4.902;2023-02-28T13:17:50;14.30;98.70
20654;DHT22;21083;50.898;4.902;2023-02-28T13:20:20;14.20;98.80
20654;DHT22;21083;50.898;4.902;2023-02-28T13:22:49;14.30;98.00
20654;DHT22;21083;50.898;4.902;2023-02-28T13:25:52;14.60;97.80
20654;DHT22;21083;50.898;4.902;2023-02-28T13:34:36;14.60;97.40
20654;DHT22;21083;50.898;4.902;2023-02-28T13:37:32;14.40;95.60
20654;DHT22;21083;50.898;4.902;2023-02-28T13:42:50;14.50;96.00
20654;DHT22;21083;50.898;4.902;2023-02-28T13:45:23;14.60;96.00
20654;DHT22;21083;50.898;4.902;2023-02-28T13:47:56;15.10;95.50
20654;DHT22;21083;50.898;4.902;2023-02-28T13:50:33;15.60;95.40
20654;DHT22;21083;50.898;4.902;2023-02-28T13:56:07;15.80;94.90
20654;DHT22;21083;50.898;4.902;2023-02-28T13:58:53;16.20;94.70
20654;DHT22;21083;50.898;4.902;2023-02-28T14:01:50;16.60;94.10
20654;DHT22;21083;50.898;4.902;2023-02-28T14:04:45;16.70;92.90
20654;DHT22;21083;50.898;4.902;2023-02-28T14:07:20;16.90;94.20
20654;DHT22;21083;50.898;4.902;2023-02-28T14:09:55;17.20;93.40
20654;DHT22;21083;50.898;4.902;2023-02-28T14:12:57;17.00;91.40
20654;DHT22;21083;50.898;4.902;2023-02-28T14:15:43;17.40;91.80
20654;DHT22;21083;50.898;4.902;2023-02-28T14:18:26;17.50;91.60
20654;DHT22;21083;50.898;4.902;2023-02-28T14:21:01;17.90;91.30
20654;DHT22;21083;50.898;4.902;2023-02-28T14:23:43;18.30;91.50
20654;DHT22;21083;50.898;4.902;2023-02-28T14:26:25;18.20;91.30
20654;DHT22;21083;50.898;4.902;2023-02-28T14:29:07;18.10;89.70
20654;DHT22;21083;50.898;4.902;2023-02-28T14:31:45;17.70;90.30
20654;DHT22;21083;50.898;4.902;2023-02-28T14:34:31;18.30;87.60
20654;DHT22;21083;50.898;4.902;2023-02-28T14:37:03;18.10;88.70
20654;DHT22;21083;50.898;4.902;2023-02-28T14:39:31;18.30;87.50
20654;DHT22;21083;50.898;4.902;2023-02-28T14:41:59;18.80;88.30
20654;DHT22;21083;50.898;4.902;2023-02-28T14:44:31;19.10;89.10
20654;DHT22;21083;50.898;4.902;2023-02-28T14:47:00;19.40;85.30
20654;DHT22;21083;50.898;4.902;2023-02-28T14:49:31;19.20;86.40
20654;DHT22;21083;50.898;4.902;2023-02-28T14:52:05;19.50;84.80
20654;DHT22;21083;50.898;4.902;2023-02-28T14:54:35;19.50;84.00
20654;DHT22;21083;50.898;4.902;2023-02-28T14:57:02;19.50;83.80
20654;DHT22;21083;50.898;4.902;2023-02-28T14:59:32;19.60;84.30
20654;DHT22;21083;50.898;4.902;2023-02-28T15:02:21;19.80;82.70
20654;DHT22;21083;50.898;4.902;2023-02-28T15:04:56;19.80;84.30
20654;DHT22;21083;50.898;4.902;2023-02-28T15:07:23;19.60;82.20
20654;DHT22;21083;50.898;4.902;2023-02-28T15:10:13;19.40;83.20
20654;DHT22;21083;50.898;4.902;2023-02-28T15:12:40;18.90;82.40
20654;DHT22;21083;50.898;4.902;2023-02-28T15:15:15;18.60;83.50
20654;DHT22;21083;50.898;4.902;2023-02-28T15:17:46;18.50;83.40
20654;DHT22;21083;50.898;4.902;2023-02-28T15:20:16;18.50;84.70
20654;DHT22;21083;50.898;4.902;2023-02-28T15:22:45;17.70;83.90
20654;DHT22;21083;50.898;4.902;2023-02-28T15:25:16;16.30;86.90
20654;DHT22;21083;50.898;4.902;2023-02-28T15:27:47;15.30;88.20
20654;DHT22;21083;50.898;4.902;2023-02-28T15:30:17;15.20;90.90
20654;DHT22;21083;50.898;4.902;2023-02-28T15:33:02;15.80;90.10
20654;DHT22;21083;50.898;4.902;2023-02-28T15:35:31;16.70;89.00
20654;DHT22;21083;50.898;4.902;2023-02-28T15:38:02;17.30;87.40
20654;DHT22;21083;50.898;4.902;2023-02-28T15:40:33;17.60;86.70
20654;DHT22;21083;50.898;4.902;2023-02-28T15:43:05;18.60;84.60
20654;DHT22;21083;50.898;4.902;2023-02-28T15:45:34;19.00;82.90
20654;DHT22;21083;50.898;4.902;2023-02-28T15:48:09;18.80;83.60
20654;DHT22;21083;50.898;4.902;2023-02-28T15:50:40;19.10;83.60
20654;DHT22;21083;50.898;4.902;2023-02-28T15:53:13;19.70;83.10
20654;DHT22;21083;50.898;4.902;2023-02-28T15:55:40;19.90;84.00
20654;DHT22;21083;50.898;4.902;2023-02-28T15:58:11;20.00;82.00
20654;DHT22;21083;50.898;4.902;2023-02-28T16:00:39;20.10;80.40
20654;DHT22;21083;50.898;4.902;2023-02-28T16:03:33;19.80;79.30
20654;DHT22;21083;50.898;4.902;2023-02-28T16:06:25;20.00;79.70
20654;DHT22;21083;50.898;4.902;2023-02-28T16:08:52;19.10;81.80
20654;DHT22;21083;50.898;4.902;2023-02-28T16:11:20;19.30;80.10
20654;DHT22;21083;50.898;4.902;2023-02-28T16:13:47;19.20;81.00
20654;DHT22;21083;50.898;4.902;2023-02-28T16:16:16;19.40;80.00
20654;DHT22;21083;50.898;4.902;2023-02-28T16:18:45;19.10;79.80
20654;DHT22;21083;50.898;4.902;2023-02-28T16:21:12;18.60;80.00
20654;DHT22;21083;50.898;4.902;2023-02-28T16:23:39;18.10;82.00
20654;DHT22;21083;50.898;4.902;2023-02-28T16:26:06;17.80;82.00
20654;DHT22;21083;50.898;4.902;2023-02-28T16:28:36;17.50;83.30
20654;DHT22;21083;50.898;4.902;2023-02-28T16:31:06;16.90;84.60